createdAt,value
2018-03-31T00:05:51.000Z,21.47
2018-03-31T00:15:51.000Z,21.41
2018-03-31T00:25:51.000Z,21.37
2018-03-31T00:35:51.000Z,21.32
2018-03-31T00:45:51.000Z,21.26
2018-03-31T00:55:51.000Z,21.22
2018-03-31T01:05:51.000Z,21.16
2018-03-31T01:15:51.000Z,21.11
2018-03-31T01:25:51.000Z,21.05
2018-03-31T01:35:51.000Z,21.01
2018-03-31T01:45:51.000Z,20.95
2018-03-31T01:55:51.000Z,20.89
2018-03-31T02:05:51.000Z,20.84
2018-03-31T02:15:51.000Z,20.78
2018-03-31T02:25:51.000Z,20.72
2018-03-31T02:35:51.000Z,20.67
2018-03-31T02:45:51.000Z,20.62
2018-03-31T02:55:51.000Z,20.57
2018-03-31T03:05:51.000Z,20.53
2018-03-31T03:15:51.000Z,20.49
2018-03-31T03:25:51.000Z,20.45
2018-03-31T03:35:51.000Z,20.41
2018-03-31T03:45:51.000Z,20.36
2018-03-31T03:55:51.000Z,20.33
2018-03-31T04:05:51.000Z,20.28
2018-03-31T04:15:51.000Z,20.25
2018-03-31T04:25:51.000Z,20.2
2018-03-31T04:35:51.000Z,20.17
2018-03-31T04:45:51.000Z,20.12
2018-03-31T04:55:51.000Z,20.08
2018-03-31T05:05:51.000Z,20.04
2018-03-31T05:15:51.000Z,20.02
2018-03-31T05:25:51.000Z,19.98
2018-03-31T05:35:51.000Z,19.96
2018-03-31T05:45:51.000Z,19.92
2018-03-31T05:55:51.000Z,19.91
2018-03-31T06:05:51.000Z,19.89
2018-03-31T06:15:51.000Z,19.92
2018-03-31T06:25:52.000Z,19.96
2018-03-31T06:35:52.000Z,19.97
2018-03-31T06:45:52.000Z,20
2018-03-31T06:55:52.000Z,20.08
2018-03-31T07:05:52.000Z,20.23
2018-03-31T07:15:52.000Z,20.26
2018-03-31T07:25:52.000Z,20.5
2018-03-31T07:35:52.000Z,20.59
2018-03-31T07:45:52.000Z,20.74
2018-03-31T07:55:52.000Z,20.88
2018-03-31T08:05:52.000Z,20.96
2018-03-31T08:15:52.000Z,21.11
2018-03-31T08:25:52.000Z,21.15
2018-03-31T08:35:52.000Z,21.25
2018-03-31T08:45:52.000Z,21.35
2018-03-31T08:55:52.000Z,21.37
2018-03-31T09:05:52.000Z,21.49
2018-03-31T09:15:52.000Z,21.57
2018-03-31T09:25:52.000Z,21.7
2018-03-31T09:35:52.000Z,21.77
2018-03-31T09:45:52.000Z,21.93
2018-03-31T09:55:52.000Z,22.01
2018-03-31T10:05:52.000Z,22.1
2018-03-31T10:15:52.000Z,22.19
2018-03-31T10:25:52.000Z,22.31
2018-03-31T10:35:52.000Z,22.39
2018-03-31T10:45:52.000Z,22.41
2018-03-31T10:55:52.000Z,22.53
2018-03-31T11:05:52.000Z,22.44
2018-03-31T11:15:52.000Z,22.64
2018-03-31T11:25:52.000Z,22.73
2018-03-31T11:35:52.000Z,22.85
2018-03-31T11:45:52.000Z,22.88
2018-03-31T11:55:52.000Z,22.88
2018-03-31T12:05:52.000Z,23.03
2018-03-31T12:15:52.000Z,23.06
2018-03-31T12:25:52.000Z,23.1
2018-03-31T12:35:52.000Z,23.1
2018-03-31T12:45:52.000Z,23.07
2018-03-31T12:55:52.000Z,23.06
2018-03-31T13:05:52.000Z,23.11
2018-03-31T13:15:52.000Z,23.09
2018-03-31T13:25:52.000Z,22.93
2018-03-31T13:35:52.000Z,22.85
2018-03-31T13:45:52.000Z,22.77
2018-03-31T13:55:52.000Z,22.81
2018-03-31T14:05:52.000Z,22.72
2018-03-31T14:15:52.000Z,22.66
2018-03-31T14:25:52.000Z,22.57
2018-03-31T14:35:53.000Z,22.45
2018-03-31T14:45:53.000Z,22.38
2018-03-31T14:55:53.000Z,22.36
2018-03-31T15:05:53.000Z,22.36
2018-03-31T15:15:53.000Z,22.35
2018-03-31T15:25:53.000Z,22.31
2018-03-31T15:35:53.000Z,22.23
2018-03-31T15:45:53.000Z,22.19
2018-03-31T15:55:53.000Z,22.2
2018-03-31T16:05:53.000Z,22.04
2018-03-31T16:15:53.000Z,22.14
2018-03-31T16:25:53.000Z,22.02
2018-03-31T16:35:53.000Z,21.99
2018-03-31T16:45:53.000Z,22.01
2018-03-31T16:55:53.000Z,21.99
2018-03-31T17:05:53.000Z,21.93
2018-03-31T17:15:53.000Z,21.86
2018-03-31T17:25:53.000Z,21.8
2018-03-31T17:35:53.000Z,21.76
2018-03-31T17:45:53.000Z,21.7
2018-03-31T17:55:53.000Z,21.62
2018-03-31T18:05:53.000Z,21.58
2018-03-31T18:15:53.000Z,21.49
2018-03-31T18:25:53.000Z,21.41
2018-03-31T18:35:53.000Z,21.35
2018-03-31T18:45:53.000Z,21.27
2018-03-31T18:55:53.000Z,21.2
2018-03-31T19:05:53.000Z,21.12
2018-03-31T19:15:53.000Z,21.04
2018-03-31T19:25:53.000Z,20.99
2018-03-31T19:35:53.000Z,21.02
2018-03-31T19:45:53.000Z,21
2018-03-31T19:55:53.000Z,20.98
2018-03-31T20:05:53.000Z,20.95
2018-03-31T20:15:53.000Z,20.93
2018-03-31T20:25:53.000Z,20.92
2018-03-31T20:35:53.000Z,20.9
2018-03-31T20:45:53.000Z,20.87
2018-03-31T20:55:53.000Z,20.82
2018-03-31T21:05:53.000Z,20.73
2018-03-31T21:15:53.000Z,20.63
2018-03-31T21:25:53.000Z,20.58
2018-03-31T21:35:53.000Z,20.48
2018-03-31T21:45:53.000Z,20.44
2018-03-31T21:55:53.000Z,20.35
2018-03-31T22:05:53.000Z,20.29
2018-03-31T22:15:53.000Z,20.2
2018-03-31T22:25:53.000Z,20.16
2018-03-31T22:35:53.000Z,20.11
2018-03-31T22:45:53.000Z,20.06
2018-03-31T22:55:53.000Z,20
2018-03-31T23:05:53.000Z,19.94
2018-03-31T23:15:53.000Z,19.89
2018-03-31T23:25:58.000Z,19.83
2018-03-31T23:35:54.000Z,19.78
2018-03-31T23:45:54.000Z,19.74
2018-03-31T23:55:54.000Z,19.68
